首页
METAR-TAF:

METAR-TAF

机场 :

靜岡機場

靜岡, 日本

纬度: 34-47-46N, 经度: 138-11-22E, 海拔: 132米

当前天气观测

该预报发布于33分钟前的11:00 UTC
风速11节,风向西转西南
温度 14°C
湿度 38%
气压 1016 hPa
能见度10公里或以上
少量云层高于3000英尺
多云

METAR: RJNS 091100Z 25011KT 9999 FEW030 BKN/// 14/00 Q1016

时间: 20:33 (11:33 UTC)

预报

该预报发布于6小时和26分钟前的05:07 UTC
预报有效从09日的 06点(UTC)到 10日的 12点(UTC)
风速18节,风向西转西南
能见度10公里或以上
少量云层高于3000英尺
短暂存在
从 09日的 06点(UTC)到 09日的 09点(UTC)
风速20节,风向西转西南,有时为30节阵风
成为
从 10日的 09点(UTC)到 10日的 12点(UTC)
风速6节,风向西转西北

TAF: RJNS 090507Z 0906/1012 25018KT 9999 FEW030 TEMPO 0906/0909 25020G30KT BECMG 1009/1012 30006KT

超过4000个机场的气象观测和天气预报(METAR&TAF报告)。

可查询的气象台以黄色和红色小点在地图上表示。

将鼠标移到小点上方,可查看气象台名称。

然后点击查看天气观测和预报。

如需切换地图:点击带黑十字的绿色按钮放大地图;点击带横线的绿色按钮缩小地图;或者点击绿色箭头查看邻近地区的地图。


METAR-TAF: